sensor_id;sensor_type;location;lat;lon;timestamp;pressure;altitude;pressure_sealevel;temperature;humidity
47897;BME280;39629;51.400;5.494;2022-11-18T00:03:52;99354.00;;;6.80;100.00
47897;BME280;39629;51.400;5.494;2022-11-18T00:08:55;99355.53;;;6.95;100.00
47897;BME280;39629;51.400;5.494;2022-11-18T00:13:56;99364.47;;;6.79;100.00
47897;BME280;39629;51.400;5.494;2022-11-18T00:19:17;99367.88;;;6.86;100.00
47897;BME280;39629;51.400;5.494;2022-11-18T00:24:19;99368.63;;;6.95;100.00
47897;BME280;39629;51.400;5.494;2022-11-18T00:29:22;99375.47;;;7.07;100.00
47897;BME280;39629;51.400;5.494;2022-11-18T00:34:25;99375.38;;;7.15;100.00
47897;BME280;39629;51.400;5.494;2022-11-18T00:39:26;99388.41;;;7.18;100.00
47897;BME280;39629;51.400;5.494;2022-11-18T00:44:28;99386.63;;;7.22;100.00
47897;BME280;39629;51.400;5.494;2022-11-18T00:49:31;99397.06;;;7.25;100.00
47897;BME280;39629;51.400;5.494;2022-11-18T00:54:33;99396.94;;;7.34;100.00
47897;BME280;39629;51.400;5.494;2022-11-18T00:59:34;99410.97;;;7.28;100.00
47897;BME280;39629;51.400;5.494;2022-11-18T01:04:37;99417.06;;;7.27;100.00
47897;BME280;39629;51.400;5.494;2022-11-18T01:09:39;99410.88;;;7.36;100.00
47897;BME280;39629;51.400;5.494;2022-11-18T01:14:41;99427.38;;;7.40;100.00
47897;BME280;39629;51.400;5.494;2022-11-18T01:19:44;99439.41;;;7.56;100.00
47897;BME280;39629;51.400;5.494;2022-11-18T01:24:45;99435.09;;;7.50;100.00
47897;BME280;39629;51.400;5.494;2022-11-18T01:29:47;99443.81;;;7.53;100.00
47897;BME280;39629;51.400;5.494;2022-11-18T01:34:50;99455.88;;;7.64;100.00
47897;BME280;39629;51.400;5.494;2022-11-18T01:39:51;99464.44;;;7.79;100.00
47897;BME280;39629;51.400;5.494;2022-11-18T01:44:59;99470.50;;;7.81;100.00
47897;BME280;39629;51.400;5.494;2022-11-18T01:50:06;99476.47;;;7.91;100.00
47897;BME280;39629;51.400;5.494;2022-11-18T01:55:10;99467.56;;;8.04;100.00
47897;BME280;39629;51.400;5.494;2022-11-18T02:00:13;99479.97;;;7.90;100.00
47897;BME280;39629;51.400;5.494;2022-11-18T02:05:17;99474.72;;;7.93;100.00
47897;BME280;39629;51.400;5.494;2022-11-18T02:10:21;99479.03;;;7.97;100.00
47897;BME280;39629;51.400;5.494;2022-11-18T02:15:35;99485.91;;;8.04;100.00
47897;BME280;39629;51.400;5.494;2022-11-18T02:20:43;99488.47;;;8.07;100.00
47897;BME280;39629;51.400;5.494;2022-11-18T02:25:54;99491.13;;;8.06;100.00
47897;BME280;39629;51.400;5.494;2022-11-18T02:31:06;99494.53;;;8.11;100.00
47897;BME280;39629;51.400;5.494;2022-11-18T02:36:12;99496.16;;;8.20;100.00
47897;BME280;39629;51.400;5.494;2022-11-18T02:41:20;99515.50;;;8.11;100.00
47897;BME280;39629;51.400;5.494;2022-11-18T02:46:28;99513.72;;;8.13;100.00
47897;BME280;39629;51.400;5.494;2022-11-18T02:51:32;99518.16;;;8.06;100.00
47897;BME280;39629;51.400;5.494;2022-11-18T02:56:36;99523.28;;;8.15;100.00
47897;BME280;39629;51.400;5.494;2022-11-18T03:01:39;99531.97;;;8.17;100.00
47897;BME280;39629;51.400;5.494;2022-11-18T03:06:42;99533.81;;;8.12;100.00
47897;BME280;39629;51.400;5.494;2022-11-18T03:11:52;99536.44;;;8.12;100.00
47897;BME280;39629;51.400;5.494;2022-11-18T03:16:58;99533.00;;;8.07;100.00
47897;BME280;39629;51.400;5.494;2022-11-18T03:22:07;99541.91;;;7.97;100.00
47897;BME280;39629;51.400;5.494;2022-11-18T03:27:14;99546.31;;;7.92;100.00
47897;BME280;39629;51.400;5.494;2022-11-18T03:32:23;99553.31;;;7.93;100.00
47897;BME280;39629;51.400;5.494;2022-11-18T03:37:27;99566.31;;;7.97;100.00
47897;BME280;39629;51.400;5.494;2022-11-18T03:42:34;99562.09;;;7.87;100.00
47897;BME280;39629;51.400;5.494;2022-11-18T03:47:40;99566.41;;;7.90;100.00
47897;BME280;39629;51.400;5.494;2022-11-18T03:52:44;99582.22;;;7.83;100.00
47897;BME280;39629;51.400;5.494;2022-11-18T03:57:50;99586.59;;;7.81;100.00
47897;BME280;39629;51.400;5.494;2022-11-18T04:02:55;99590.13;;;7.77;100.00
47897;BME280;39629;51.400;5.494;2022-11-18T04:07:59;99600.63;;;7.79;100.00
47897;BME280;39629;51.400;5.494;2022-11-18T04:13:06;99606.78;;;7.73;100.00
47897;BME280;39629;51.400;5.494;2022-11-18T04:18:10;99613.72;;;7.76;100.00
47897;BME280;39629;51.400;5.494;2022-11-18T04:23:11;99618.19;;;7.66;100.00
47897;BME280;39629;51.400;5.494;2022-11-18T04:28:13;99624.41;;;7.57;100.00
47897;BME280;39629;51.400;5.494;2022-11-18T04:33:16;99641.97;;;7.46;100.00
47897;BME280;39629;51.400;5.494;2022-11-18T04:38:17;99642.00;;;7.40;100.00
47897;BME280;39629;51.400;5.494;2022-11-18T04:43:19;99643.88;;;7.25;100.00
47897;BME280;39629;51.400;5.494;2022-11-18T04:48:23;99658.88;;;7.09;100.00
47897;BME280;39629;51.400;5.494;2022-11-18T04:53:24;99664.09;;;7.06;100.00
47897;BME280;39629;51.400;5.494;2022-11-18T04:58:26;99667.69;;;6.90;100.00
47897;BME280;39629;51.400;5.494;2022-11-18T05:03:28;99673.94;;;6.73;100.00
47897;BME280;39629;51.400;5.494;2022-11-18T05:08:30;99677.44;;;6.71;100.00
47897;BME280;39629;51.400;5.494;2022-11-18T05:13:32;99673.97;;;6.62;100.00
47897;BME280;39629;51.400;5.494;2022-11-18T05:18:35;99695.81;;;6.52;100.00
47897;BME280;39629;51.400;5.494;2022-11-18T05:23:36;99692.31;;;6.42;100.00
47897;BME280;39629;51.400;5.494;2022-11-18T05:28:38;99690.59;;;6.38;100.00
47897;BME280;39629;51.400;5.494;2022-11-18T05:33:41;99701.06;;;6.35;100.00
47897;BME280;39629;51.400;5.494;2022-11-18T05:38:43;99710.69;;;6.28;100.00
47897;BME280;39629;51.400;5.494;2022-11-18T05:43:45;99715.97;;;6.13;100.00
47897;BME280;39629;51.400;5.494;2022-11-18T05:48:48;99727.28;;;6.10;100.00
47897;BME280;39629;51.400;5.494;2022-11-18T05:53:51;99724.69;;;6.06;100.00
47897;BME280;39629;51.400;5.494;2022-11-18T05:58:53;99741.25;;;6.00;100.00
47897;BME280;39629;51.400;5.494;2022-11-18T06:03:56;99744.72;;;5.99;100.00
47897;BME280;39629;51.400;5.494;2022-11-18T06:09:00;99753.44;;;5.90;100.00
47897;BME280;39629;51.400;5.494;2022-11-18T06:14:04;99754.31;;;5.92;100.00
47897;BME280;39629;51.400;5.494;2022-11-18T06:19:08;99760.41;;;5.88;100.00
47897;BME280;39629;51.400;5.494;2022-11-18T06:24:10;99765.63;;;5.82;100.00
47897;BME280;39629;51.400;5.494;2022-11-18T06:29:13;99780.41;;;5.80;100.00
47897;BME280;39629;51.400;5.494;2022-11-18T06:34:18;99786.53;;;5.77;100.00
47897;BME280;39629;51.400;5.494;2022-11-18T06:39:20;99786.53;;;5.68;100.00
47897;BME280;39629;51.400;5.494;2022-11-18T06:44:21;99795.22;;;5.64;100.00
47897;BME280;39629;51.400;5.494;2022-11-18T06:49:25;99803.06;;;5.67;100.00
47897;BME280;39629;51.400;5.494;2022-11-18T06:54:27;99810.88;;;5.55;100.00
47897;BME280;39629;51.400;5.494;2022-11-18T06:59:29;99817.84;;;5.56;100.00
47897;BME280;39629;51.400;5.494;2022-11-18T07:04:32;99823.06;;;5.59;100.00
47897;BME280;39629;51.400;5.494;2022-11-18T07:09:38;99835.25;;;5.58;100.00
47897;BME280;39629;51.400;5.494;2022-11-18T07:14:40;99842.19;;;5.53;100.00
47897;BME280;39629;51.400;5.494;2022-11-18T07:19:43;99850.88;;;5.48;100.00
47897;BME280;39629;51.400;5.494;2022-11-18T07:24:44;99857.84;;;5.53;100.00
47897;BME280;39629;51.400;5.494;2022-11-18T07:29:46;99866.53;;;5.49;100.00
47897;BME280;39629;51.400;5.494;2022-11-18T07:34:49;99856.13;;;5.58;100.00
47897;BME280;39629;51.400;5.494;2022-11-18T07:39:50;99870.94;;;5.61;100.00
47897;BME280;39629;51.400;5.494;2022-11-18T07:44:52;99872.66;;;5.60;100.00
47897;BME280;39629;51.400;5.494;2022-11-18T07:49:55;99873.53;;;5.69;100.00
47897;BME280;39629;51.400;5.494;2022-11-18T07:54:56;99884.84;;;5.77;100.00
47897;BME280;39629;51.400;5.494;2022-11-18T07:59:58;99900.53;;;5.91;100.00
47897;BME280;39629;51.400;5.494;2022-11-18T08:05:01;99901.44;;;6.07;100.00
47897;BME280;39629;51.400;5.494;2022-11-18T08:10:03;99910.13;;;6.20;100.00
47897;BME280;39629;51.400;5.494;2022-11-18T08:15:05;99918.84;;;6.48;100.00
47897;BME280;39629;51.400;5.494;2022-11-18T08:20:09;99930.16;;;6.70;100.00
47897;BME280;39629;51.400;5.494;2022-11-18T08:25:11;99928.44;;;6.71;100.00
47897;BME280;39629;51.400;5.494;2022-11-18T08:30:13;99939.69;;;6.90;100.00
47897;BME280;39629;51.400;5.494;2022-11-18T08:35:16;99948.31;;;7.26;100.00
47897;BME280;39629;51.400;5.494;2022-11-18T08:40:18;99951.72;;;7.53;100.00
47897;BME280;39629;51.400;5.494;2022-11-18T08:45:19;99948.13;;;7.72;100.00
47897;BME280;39629;51.400;5.494;2022-11-18T08:50:22;99937.56;;;7.81;100.00
47897;BME280;39629;51.400;5.494;2022-11-18T08:55:24;99939.25;;;7.95;100.00
47897;BME280;39629;51.400;5.494;2022-11-18T09:00:25;99942.56;;;8.23;100.00
47897;BME280;39629;51.400;5.494;2022-11-18T09:05:28;99945.03;;;8.39;100.00
47897;BME280;39629;51.400;5.494;2022-11-18T09:10:30;99961.56;;;8.45;100.00
47897;BME280;39629;51.400;5.494;2022-11-18T09:15:34;99959.84;;;8.44;100.00
47897;BME280;39629;51.400;5.494;2022-11-18T09:20:37;99962.41;;;8.50;100.00
47897;BME280;39629;51.400;5.494;2022-11-18T09:25:38;99964.09;;;8.61;100.00
47897;BME280;39629;51.400;5.494;2022-11-18T09:30:40;99973.56;;;8.74;100.00
47897;BME280;39629;51.400;5.494;2022-11-18T09:35:43;99977.09;;;8.70;100.00
47897;BME280;39629;51.400;5.494;2022-11-18T09:40:52;99985.88;;;8.69;100.00
47897;BME280;39629;51.400;5.494;2022-11-18T09:46:02;100005.00;;;8.77;100.00
47897;BME280;39629;51.400;5.494;2022-11-18T09:51:10;100019.75;;;8.95;100.00
47897;BME280;39629;51.400;5.494;2022-11-18T09:56:14;100018.06;;;8.85;100.00
47897;BME280;39629;51.400;5.494;2022-11-18T10:01:18;100025.09;;;8.80;100.00
47897;BME280;39629;51.400;5.494;2022-11-18T10:06:24;100030.44;;;8.71;100.00
47897;BME280;39629;51.400;5.494;2022-11-18T10:11:32;100027.63;;;8.97;100.00
47897;BME280;39629;51.400;5.494;2022-11-18T10:16:43;100026.41;;;9.27;100.00
47897;BME280;39629;51.400;5.494;2022-11-18T10:21:56;100035.00;;;9.45;100.00
47897;BME280;39629;51.400;5.494;2022-11-18T10:27:00;100037.56;;;9.52;100.00
47897;BME280;39629;51.400;5.494;2022-11-18T10:32:05;100039.31;;;9.50;100.00
47897;BME280;39629;51.400;5.494;2022-11-18T10:37:21;100044.66;;;9.44;100.00
47897;BME280;39629;51.400;5.494;2022-11-18T10:42:27;100041.22;;;9.36;100.00
47897;BME280;39629;51.400;5.494;2022-11-18T10:47:30;100045.59;;;9.35;100.00
47897;BME280;39629;51.400;5.494;2022-11-18T10:52:50;100049.09;;;9.36;100.00
47897;BME280;39629;51.400;5.494;2022-11-18T10:58:01;100054.25;;;9.44;100.00
47897;BME280;39629;51.400;5.494;2022-11-18T11:03:32;100058.72;;;9.37;100.00
47897;BME280;39629;51.400;5.494;2022-11-18T11:08:46;100068.22;;;9.49;100.00
47897;BME280;39629;51.400;5.494;2022-11-18T11:13:48;100063.78;;;9.56;100.00
47897;BME280;39629;51.400;5.494;2022-11-18T11:18:53;100068.03;;;9.64;100.00
47897;BME280;39629;51.400;5.494;2022-11-18T11:23:58;100060.00;;;9.78;100.00
47897;BME280;39629;51.400;5.494;2022-11-18T11:29:05;100067.78;;;9.87;100.00
47897;BME280;39629;51.400;5.494;2022-11-18T11:34:16;100072.13;;;9.92;100.00
47897;BME280;39629;51.400;5.494;2022-11-18T11:39:36;100082.50;;;10.02;100.00
47897;BME280;39629;51.400;5.494;2022-11-18T11:44:49;100086.69;;;10.16;100.00
47897;BME280;39629;51.400;5.494;2022-11-18T11:50:00;100078.88;;;10.11;100.00
47897;BME280;39629;51.400;5.494;2022-11-18T11:55:15;100072.53;;;10.26;100.00
47897;BME280;39629;51.400;5.494;2022-11-18T12:00:19;100075.94;;;10.34;100.00
47897;BME280;39629;51.400;5.494;2022-11-18T12:05:23;100082.56;;;10.60;100.00
47897;BME280;39629;51.400;5.494;2022-11-18T12:10:36;100085.09;;;10.66;100.00
47897;BME280;39629;51.400;5.494;2022-11-18T12:15:48;100082.38;;;10.72;100.00
47897;BME280;39629;51.400;5.494;2022-11-18T12:20:53;100087.78;;;10.65;100.00
47897;BME280;39629;51.400;5.494;2022-11-18T12:26:02;100087.78;;;10.65;100.00
47897;BME280;39629;51.400;5.494;2022-11-18T12:31:25;100093.09;;;10.59;100.00
47897;BME280;39629;51.400;5.494;2022-11-18T12:36:29;100090.72;;;10.42;100.00
47897;BME280;39629;51.400;5.494;2022-11-18T12:41:52;100088.84;;;10.51;100.00
47897;BME280;39629;51.400;5.494;2022-11-18T12:47:12;100094.28;;;10.39;100.00
47897;BME280;39629;51.400;5.494;2022-11-18T12:52:49;100102.25;;;10.33;100.00
47897;BME280;39629;51.400;5.494;2022-11-18T12:57:53;100096.19;;;10.28;100.00
47897;BME280;39629;51.400;5.494;2022-11-18T13:02:55;100107.63;;;10.23;100.00
47897;BME280;39629;51.400;5.494;2022-11-18T13:08:01;100104.94;;;10.28;100.00
47897;BME280;39629;51.400;5.494;2022-11-18T13:13:28;100110.09;;;10.36;100.00
47897;BME280;39629;51.400;5.494;2022-11-18T13:18:30;100118.03;;;10.33;100.00
47897;BME280;39629;51.400;5.494;2022-11-18T13:23:32;100118.91;;;10.33;100.00
47897;BME280;39629;51.400;5.494;2022-11-18T13:29:14;100117.97;;;10.37;100.00
47897;BME280;39629;51.400;5.494;2022-11-18T13:34:18;100126.75;;;10.36;100.00
47897;BME280;39629;51.400;5.494;2022-11-18T13:39:23;100123.91;;;10.50;100.00
47897;BME280;39629;51.400;5.494;2022-11-18T13:44:28;100125.63;;;10.53;100.00
47897;BME280;39629;51.400;5.494;2022-11-18T13:49:45;100129.28;;;10.41;100.00
47897;BME280;39629;51.400;5.494;2022-11-18T13:54:51;100131.13;;;10.36;100.00
47897;BME280;39629;51.400;5.494;2022-11-18T14:00:00;100130.41;;;10.26;100.00
47897;BME280;39629;51.400;5.494;2022-11-18T14:05:14;100136.72;;;10.11;100.00
47897;BME280;39629;51.400;5.494;2022-11-18T14:10:28;100142.06;;;10.02;100.00
47897;BME280;39629;51.400;5.494;2022-11-18T14:15:35;100143.03;;;9.95;100.00
47897;BME280;39629;51.400;5.494;2022-11-18T14:20:37;100160.94;;;9.57;100.00
47897;BME280;39629;51.400;5.494;2022-11-18T14:25:42;100152.34;;;9.40;100.00
47897;BME280;39629;51.400;5.494;2022-11-18T14:30:59;100155.91;;;9.32;100.00
47897;BME280;39629;51.400;5.494;2022-11-18T14:36:07;100159.44;;;9.33;100.00
47897;BME280;39629;51.400;5.494;2022-11-18T14:41:11;100165.53;;;9.33;100.00
47897;BME280;39629;51.400;5.494;2022-11-18T14:46:17;100172.59;;;9.27;100.00
47897;BME280;39629;51.400;5.494;2022-11-18T14:51:21;100174.34;;;9.28;100.00
47897;BME280;39629;51.400;5.494;2022-11-18T14:56:25;100175.31;;;9.19;100.00
47897;BME280;39629;51.400;5.494;2022-11-18T15:01:28;100196.34;;;9.10;100.00
47897;BME280;39629;51.400;5.494;2022-11-18T15:06:30;100195.56;;;9.00;100.00
47897;BME280;39629;51.400;5.494;2022-11-18T15:11:31;100200.78;;;8.94;100.00
47897;BME280;39629;51.400;5.494;2022-11-18T15:16:34;100213.09;;;8.84;100.00
47897;BME280;39629;51.400;5.494;2022-11-18T15:21:36;100219.25;;;8.83;100.00
47897;BME280;39629;51.400;5.494;2022-11-18T15:26:39;100215.78;;;8.75;100.00
47897;BME280;39629;51.400;5.494;2022-11-18T15:31:42;100211.47;;;8.69;100.00
47897;BME280;39629;51.400;5.494;2022-11-18T15:36:44;100221.03;;;8.72;100.00
47897;BME280;39629;51.400;5.494;2022-11-18T15:41:46;100214.97;;;8.62;100.00
47897;BME280;39629;51.400;5.494;2022-11-18T15:46:48;100221.13;;;8.61;100.00
47897;BME280;39629;51.400;5.494;2022-11-18T15:51:50;100224.59;;;8.61;100.00
47897;BME280;39629;51.400;5.494;2022-11-18T15:56:52;100228.97;;;8.58;100.00
47897;BME280;39629;51.400;5.494;2022-11-18T16:01:55;100231.63;;;8.53;100.00
47897;BME280;39629;51.400;5.494;2022-11-18T16:06:57;100234.25;;;8.55;100.00
47897;BME280;39629;51.400;5.494;2022-11-18T16:12:00;100237.78;;;8.47;100.00
47897;BME280;39629;51.400;5.494;2022-11-18T16:17:20;100229.03;;;8.47;100.00
47897;BME280;39629;51.400;5.494;2022-11-18T16:22:22;100241.31;;;8.40;100.00
47897;BME280;39629;51.400;5.494;2022-11-18T16:27:24;100239.53;;;8.41;100.00
47897;BME280;39629;51.400;5.494;2022-11-18T16:32:27;100238.69;;;8.37;100.00
47897;BME280;39629;51.400;5.494;2022-11-18T16:37:28;100246.56;;;8.32;100.00
47897;BME280;39629;51.400;5.494;2022-11-18T16:42:30;100248.31;;;8.33;100.00
47897;BME280;39629;51.400;5.494;2022-11-18T16:47:33;100264.03;;;8.35;100.00
47897;BME280;39629;51.400;5.494;2022-11-18T16:52:34;100261.44;;;8.32;100.00
47897;BME280;39629;51.400;5.494;2022-11-18T16:57:36;100263.16;;;8.30;100.00
47897;BME280;39629;51.400;5.494;2022-11-18T17:02:39;100271.03;;;8.30;100.00
47897;BME280;39629;51.400;5.494;2022-11-18T17:07:40;100265.81;;;8.27;100.00
47897;BME280;39629;51.400;5.494;2022-11-18T17:12:42;100266.66;;;8.27;100.00
47897;BME280;39629;51.400;5.494;2022-11-18T17:17:45;100272.81;;;8.25;100.00
47897;BME280;39629;51.400;5.494;2022-11-18T17:22:47;100277.19;;;8.21;100.00
47897;BME280;39629;51.400;5.494;2022-11-18T17:27:48;100283.28;;;8.18;100.00
47897;BME280;39629;51.400;5.494;2022-11-18T17:32:51;100287.69;;;8.18;100.00
47897;BME280;39629;51.400;5.494;2022-11-18T17:37:54;100282.44;;;8.12;100.00
47897;BME280;39629;51.400;5.494;2022-11-18T17:42:55;100289.41;;;8.13;100.00
47897;BME280;39629;51.400;5.494;2022-11-18T17:47:58;100292.03;;;8.13;100.00
47897;BME280;39629;51.400;5.494;2022-11-18T17:53:00;100305.16;;;8.13;100.00
47897;BME280;39629;51.400;5.494;2022-11-18T17:58:01;100304.28;;;8.11;100.00
47897;BME280;39629;51.400;5.494;2022-11-18T18:03:04;100308.63;;;8.10;100.00
47897;BME280;39629;51.400;5.494;2022-11-18T18:08:06;100311.25;;;8.09;100.00
47897;BME280;39629;51.400;5.494;2022-11-18T18:13:09;100330.50;;;8.03;100.00
47897;BME280;39629;51.400;5.494;2022-11-18T18:18:35;100326.13;;;8.07;100.00
47897;BME280;39629;51.400;5.494;2022-11-18T18:23:36;100329.63;;;8.03;100.00
47897;BME280;39629;51.400;5.494;2022-11-18T18:28:38;100340.13;;;8.03;100.00
47897;BME280;39629;51.400;5.494;2022-11-18T18:33:41;100332.25;;;8.04;100.00
47897;BME280;39629;51.400;5.494;2022-11-18T18:38:43;100323.50;;;7.99;100.00
47897;BME280;39629;51.400;5.494;2022-11-18T18:43:45;100327.00;;;7.98;100.00
47897;BME280;39629;51.400;5.494;2022-11-18T18:48:49;100335.75;;;8.00;100.00
47897;BME280;39629;51.400;5.494;2022-11-18T18:53:50;100332.22;;;7.98;100.00
47897;BME280;39629;51.400;5.494;2022-11-18T18:58:52;100344.47;;;8.02;100.00
47897;BME280;39629;51.400;5.494;2022-11-18T19:03:56;100347.97;;;8.01;100.00
47897;BME280;39629;51.400;5.494;2022-11-18T19:09:00;100344.44;;;8.04;100.00
47897;BME280;39629;51.400;5.494;2022-11-18T19:14:04;100350.59;;;8.04;100.00
47897;BME280;39629;51.400;5.494;2022-11-18T19:19:08;100350.59;;;8.06;100.00
47897;BME280;39629;51.400;5.494;2022-11-18T19:24:11;100345.34;;;8.04;100.00
47897;BME280;39629;51.400;5.494;2022-11-18T19:29:13;100351.47;;;8.03;100.00
47897;BME280;39629;51.400;5.494;2022-11-18T19:34:16;100358.44;;;8.07;100.00
47897;BME280;39629;51.400;5.494;2022-11-18T19:39:18;100362.81;;;8.08;100.00
47897;BME280;39629;51.400;5.494;2022-11-18T19:44:19;100365.44;;;8.08;100.00
47897;BME280;39629;51.400;5.494;2022-11-18T19:49:22;100367.16;;;8.09;100.00
47897;BME280;39629;51.400;5.494;2022-11-18T19:54:24;100368.91;;;8.10;100.00
47897;BME280;39629;51.400;5.494;2022-11-18T19:59:25;100377.69;;;8.11;100.00
47897;BME280;39629;51.400;5.494;2022-11-18T20:04:28;100389.88;;;8.10;100.00
47897;BME280;39629;51.400;5.494;2022-11-18T20:09:30;100386.41;;;8.11;100.00
47897;BME280;39629;51.400;5.494;2022-11-18T20:14:31;100392.50;;;8.09;100.00
47897;BME280;39629;51.400;5.494;2022-11-18T20:19:34;100385.50;;;8.08;100.00
47897;BME280;39629;51.400;5.494;2022-11-18T20:24:36;100396.03;;;8.11;100.00
47897;BME280;39629;51.400;5.494;2022-11-18T20:29:38;100389.88;;;8.10;100.00
47897;BME280;39629;51.400;5.494;2022-11-18T20:34:40;100385.50;;;8.08;100.00
47897;BME280;39629;51.400;5.494;2022-11-18T20:39:42;100402.97;;;8.12;100.00
47897;BME280;39629;51.400;5.494;2022-11-18T20:44:44;100404.75;;;8.13;100.00
47897;BME280;39629;51.400;5.494;2022-11-18T20:49:46;100400.38;;;8.16;100.00
47897;BME280;39629;51.400;5.494;2022-11-18T20:54:48;100409.13;;;8.15;100.00
47897;BME280;39629;51.400;5.494;2022-11-18T20:59:49;100409.13;;;8.15;100.00
47897;BME280;39629;51.400;5.494;2022-11-18T21:04:52;100409.97;;;8.17;100.00
47897;BME280;39629;51.400;5.494;2022-11-18T21:09:54;100413.47;;;8.13;100.00
47897;BME280;39629;51.400;5.494;2022-11-18T21:14:55;100423.97;;;8.15;100.00
47897;BME280;39629;51.400;5.494;2022-11-18T21:19:58;100426.59;;;8.16;100.00
47897;BME280;39629;51.400;5.494;2022-11-18T21:25:20;100429.22;;;8.15;100.00
47897;BME280;39629;51.400;5.494;2022-11-18T21:30:22;100430.94;;;8.16;100.00
47897;BME280;39629;51.400;5.494;2022-11-18T21:35:24;100430.09;;;8.17;100.00
47897;BME280;39629;51.400;5.494;2022-11-18T21:40:26;100425.69;;;8.17;100.00
47897;BME280;39629;51.400;5.494;2022-11-18T21:45:28;100431.84;;;8.16;100.00
47897;BME280;39629;51.400;5.494;2022-11-18T21:50:31;100442.31;;;8.16;100.00
47897;BME280;39629;51.400;5.494;2022-11-18T21:55:32;100454.53;;;8.14;100.00
47897;BME280;39629;51.400;5.494;2022-11-18T22:00:34;100448.41;;;8.01;100.00
47897;BME280;39629;51.400;5.494;2022-11-18T22:05:37;100458.00;;;7.87;100.00
47897;BME280;39629;51.400;5.494;2022-11-18T22:10:44;100463.25;;;7.89;100.00
47897;BME280;39629;51.400;5.494;2022-11-18T22:15:45;100466.72;;;7.88;100.00
47897;BME280;39629;51.400;5.494;2022-11-18T22:20:48;100469.34;;;7.84;100.00
47897;BME280;39629;51.400;5.494;2022-11-18T22:25:54;100475.47;;;7.87;100.00
47897;BME280;39629;51.400;5.494;2022-11-18T22:31:00;100476.31;;;7.81;100.00
47897;BME280;39629;51.400;5.494;2022-11-18T22:36:05;100478.03;;;7.76;100.00
47897;BME280;39629;51.400;5.494;2022-11-18T22:41:11;100484.19;;;7.73;100.00
47897;BME280;39629;51.400;5.494;2022-11-18T22:46:34;100491.94;;;7.55;100.00
47897;BME280;39629;51.400;5.494;2022-11-18T22:51:38;100485.84;;;7.51;100.00
47897;BME280;39629;51.400;5.494;2022-11-18T22:56:39;100489.31;;;7.48;100.00
47897;BME280;39629;51.400;5.494;2022-11-18T23:01:41;100498.88;;;7.43;100.00
47897;BME280;39629;51.400;5.494;2022-11-18T23:06:44;100507.59;;;7.42;100.00
47897;BME280;39629;51.400;5.494;2022-11-18T23:11:46;100511.97;;;7.45;100.00
47897;BME280;39629;51.400;5.494;2022-11-18T23:17:05;100524.16;;;7.32;100.00
47897;BME280;39629;51.400;5.494;2022-11-18T23:22:08;100529.22;;;7.03;100.00
47897;BME280;39629;51.400;5.494;2022-11-18T23:27:09;100537.88;;;6.97;100.00
47897;BME280;39629;51.400;5.494;2022-11-18T23:32:11;100549.00;;;6.67;100.00
47897;BME280;39629;51.400;5.494;2022-11-18T23:37:14;100551.53;;;6.62;100.00
47897;BME280;39629;51.400;5.494;2022-11-18T23:42:15;100556.66;;;6.48;100.00
47897;BME280;39629;51.400;5.494;2022-11-18T23:47:17;100553.94;;;6.37;100.00
47897;BME280;39629;51.400;5.494;2022-11-18T23:52:20;100560.81;;;6.30;100.00
47897;BME280;39629;51.400;5.494;2022-11-18T23:57:22;100556.47;;;6.31;100.00
